sensor_id;sensor_type;location;lat;lon;timestamp;temperature;humidity
62581;DHT22;48640;48.770;9.148;2024-01-06T00:00:56;6.90;99.90
62581;DHT22;48640;48.770;9.148;2024-01-06T00:03:22;6.80;99.90
62581;DHT22;48640;48.770;9.148;2024-01-06T00:05:49;6.70;99.90
62581;DHT22;48640;48.770;9.148;2024-01-06T00:08:17;6.70;99.90
62581;DHT22;48640;48.770;9.148;2024-01-06T00:10:45;6.80;99.90
62581;DHT22;48640;48.770;9.148;2024-01-06T00:13:11;6.80;99.90
62581;DHT22;48640;48.770;9.148;2024-01-06T00:15:40;6.90;99.90
62581;DHT22;48640;48.770;9.148;2024-01-06T00:18:07;6.80;99.90
62581;DHT22;48640;48.770;9.148;2024-01-06T00:20:34;6.80;99.90
62581;DHT22;48640;48.770;9.148;2024-01-06T00:23:01;6.90;99.90
62581;DHT22;48640;48.770;9.148;2024-01-06T00:25:29;6.90;99.90
62581;DHT22;48640;48.770;9.148;2024-01-06T00:27:56;7.00;99.90
62581;DHT22;48640;48.770;9.148;2024-01-06T00:30:23;7.00;99.90
62581;DHT22;48640;48.770;9.148;2024-01-06T00:32:51;7.10;99.90
62581;DHT22;48640;48.770;9.148;2024-01-06T00:35:18;7.10;99.90
62581;DHT22;48640;48.770;9.148;2024-01-06T00:37:45;7.10;99.90
62581;DHT22;48640;48.770;9.148;2024-01-06T00:40:13;7.10;99.90
62581;DHT22;48640;48.770;9.148;2024-01-06T00:42:40;7.10;99.90
62581;DHT22;48640;48.770;9.148;2024-01-06T00:45:07;7.00;99.90
62581;DHT22;48640;48.770;9.148;2024-01-06T00:47:34;6.90;99.90
62581;DHT22;48640;48.770;9.148;2024-01-06T00:50:03;6.80;99.90
62581;DHT22;48640;48.770;9.148;2024-01-06T00:52:30;6.80;99.90
62581;DHT22;48640;48.770;9.148;2024-01-06T00:54:57;6.80;99.90
62581;DHT22;48640;48.770;9.148;2024-01-06T00:57:24;6.70;99.90
62581;DHT22;48640;48.770;9.148;2024-01-06T00:59:51;6.80;99.90
62581;DHT22;48640;48.770;9.148;2024-01-06T01:02:18;6.80;99.90
62581;DHT22;48640;48.770;9.148;2024-01-06T01:04:44;6.80;99.90
62581;DHT22;48640;48.770;9.148;2024-01-06T01:07:14;6.90;99.90
62581;DHT22;48640;48.770;9.148;2024-01-06T01:09:41;6.80;99.90
62581;DHT22;48640;48.770;9.148;2024-01-06T01:12:08;6.90;99.90
62581;DHT22;48640;48.770;9.148;2024-01-06T01:14:35;6.80;99.90
62581;DHT22;48640;48.770;9.148;2024-01-06T01:17:02;6.80;99.90
62581;DHT22;48640;48.770;9.148;2024-01-06T01:19:29;6.80;99.90
62581;DHT22;48640;48.770;9.148;2024-01-06T01:21:56;6.80;99.90
62581;DHT22;48640;48.770;9.148;2024-01-06T01:24:25;6.80;99.90
62581;DHT22;48640;48.770;9.148;2024-01-06T01:26:52;6.80;99.90
62581;DHT22;48640;48.770;9.148;2024-01-06T01:29:19;6.80;99.90
62581;DHT22;48640;48.770;9.148;2024-01-06T01:31:48;6.70;99.90
62581;DHT22;48640;48.770;9.148;2024-01-06T01:34:14;6.80;99.90
62581;DHT22;48640;48.770;9.148;2024-01-06T01:36:44;6.80;99.90
62581;DHT22;48640;48.770;9.148;2024-01-06T01:39:12;6.80;99.90
62581;DHT22;48640;48.770;9.148;2024-01-06T01:41:41;6.70;99.90
62581;DHT22;48640;48.770;9.148;2024-01-06T01:44:08;6.70;99.90
62581;DHT22;48640;48.770;9.148;2024-01-06T01:46:35;6.70;99.90
62581;DHT22;48640;48.770;9.148;2024-01-06T01:49:03;6.70;99.90
62581;DHT22;48640;48.770;9.148;2024-01-06T01:51:33;6.80;99.90
62581;DHT22;48640;48.770;9.148;2024-01-06T01:54:02;6.80;99.90
62581;DHT22;48640;48.770;9.148;2024-01-06T01:56:30;6.80;99.90
62581;DHT22;48640;48.770;9.148;2024-01-06T01:59:03;6.80;99.90
62581;DHT22;48640;48.770;9.148;2024-01-06T02:01:32;6.80;99.90
62581;DHT22;48640;48.770;9.148;2024-01-06T02:04:00;6.80;99.90
62581;DHT22;48640;48.770;9.148;2024-01-06T02:06:28;6.80;99.90
62581;DHT22;48640;48.770;9.148;2024-01-06T02:08:55;6.80;99.90
62581;DHT22;48640;48.770;9.148;2024-01-06T02:11:23;6.80;99.90
62581;DHT22;48640;48.770;9.148;2024-01-06T02:13:50;6.80;99.90
62581;DHT22;48640;48.770;9.148;2024-01-06T02:16:18;6.80;99.90
62581;DHT22;48640;48.770;9.148;2024-01-06T02:18:46;6.80;99.90
62581;DHT22;48640;48.770;9.148;2024-01-06T02:21:14;6.80;99.80
62581;DHT22;48640;48.770;9.148;2024-01-06T02:23:44;6.80;99.80
62581;DHT22;48640;48.770;9.148;2024-01-06T02:26:11;6.80;99.80
62581;DHT22;48640;48.770;9.148;2024-01-06T02:28:38;6.80;99.60
62581;DHT22;48640;48.770;9.148;2024-01-06T02:31:06;6.80;99.60
62581;DHT22;48640;48.770;9.148;2024-01-06T02:33:35;6.80;99.60
62581;DHT22;48640;48.770;9.148;2024-01-06T02:36:03;6.70;99.90
62581;DHT22;48640;48.770;9.148;2024-01-06T02:38:30;6.70;99.80
62581;DHT22;48640;48.770;9.148;2024-01-06T02:40:59;6.70;99.40
62581;DHT22;48640;48.770;9.148;2024-01-06T02:43:25;6.70;99.50
62581;DHT22;48640;48.770;9.148;2024-01-06T02:45:53;6.70;99.60
62581;DHT22;48640;48.770;9.148;2024-01-06T02:48:20;6.80;99.70
62581;DHT22;48640;48.770;9.148;2024-01-06T02:50:48;6.70;99.50
62581;DHT22;48640;48.770;9.148;2024-01-06T02:53:15;6.70;99.60
62581;DHT22;48640;48.770;9.148;2024-01-06T02:55:43;6.70;99.80
62581;DHT22;48640;48.770;9.148;2024-01-06T02:58:12;6.70;99.70
62581;DHT22;48640;48.770;9.148;2024-01-06T03:00:39;6.60;99.60
62581;DHT22;48640;48.770;9.148;2024-01-06T03:03:06;6.60;99.80
62581;DHT22;48640;48.770;9.148;2024-01-06T03:05:33;6.60;99.90
62581;DHT22;48640;48.770;9.148;2024-01-06T03:08:00;6.60;99.90
62581;DHT22;48640;48.770;9.148;2024-01-06T03:10:29;6.60;99.90
62581;DHT22;48640;48.770;9.148;2024-01-06T03:12:56;6.50;99.90
62581;DHT22;48640;48.770;9.148;2024-01-06T03:15:24;6.50;99.80
62581;DHT22;48640;48.770;9.148;2024-01-06T03:17:52;6.40;99.90
62581;DHT22;48640;48.770;9.148;2024-01-06T03:20:19;6.40;99.70
62581;DHT22;48640;48.770;9.148;2024-01-06T03:22:48;6.40;99.80
62581;DHT22;48640;48.770;9.148;2024-01-06T03:25:15;6.40;99.90
62581;DHT22;48640;48.770;9.148;2024-01-06T03:27:42;6.30;99.90
62581;DHT22;48640;48.770;9.148;2024-01-06T03:30:10;6.30;99.90
62581;DHT22;48640;48.770;9.148;2024-01-06T03:32:39;6.30;99.90
62581;DHT22;48640;48.770;9.148;2024-01-06T03:35:07;6.30;99.90
62581;DHT22;48640;48.770;9.148;2024-01-06T03:37:35;6.40;99.90
62581;DHT22;48640;48.770;9.148;2024-01-06T03:40:02;6.40;99.90
62581;DHT22;48640;48.770;9.148;2024-01-06T03:42:29;6.30;99.90
62581;DHT22;48640;48.770;9.148;2024-01-06T03:44:56;6.30;99.90
62581;DHT22;48640;48.770;9.148;2024-01-06T03:47:23;6.30;99.90
62581;DHT22;48640;48.770;9.148;2024-01-06T03:49:52;6.30;99.90
62581;DHT22;48640;48.770;9.148;2024-01-06T03:52:19;6.30;99.90
62581;DHT22;48640;48.770;9.148;2024-01-06T03:54:48;6.30;99.90
62581;DHT22;48640;48.770;9.148;2024-01-06T03:57:15;6.20;99.90
62581;DHT22;48640;48.770;9.148;2024-01-06T03:59:42;6.20;99.90
62581;DHT22;48640;48.770;9.148;2024-01-06T04:02:09;6.10;99.90
62581;DHT22;48640;48.770;9.148;2024-01-06T04:04:36;6.10;99.90
62581;DHT22;48640;48.770;9.148;2024-01-06T04:07:06;6.10;99.90
62581;DHT22;48640;48.770;9.148;2024-01-06T04:09:34;6.20;99.90
62581;DHT22;48640;48.770;9.148;2024-01-06T04:12:00;6.20;99.90
62581;DHT22;48640;48.770;9.148;2024-01-06T04:14:27;6.20;99.90
62581;DHT22;48640;48.770;9.148;2024-01-06T04:16:54;6.30;99.90
62581;DHT22;48640;48.770;9.148;2024-01-06T04:19:22;6.20;99.90
62581;DHT22;48640;48.770;9.148;2024-01-06T04:21:49;6.20;99.90
62581;DHT22;48640;48.770;9.148;2024-01-06T04:24:18;6.20;99.90
62581;DHT22;48640;48.770;9.148;2024-01-06T04:26:45;6.20;99.90
62581;DHT22;48640;48.770;9.148;2024-01-06T04:29:12;6.20;99.90
62581;DHT22;48640;48.770;9.148;2024-01-06T04:31:39;6.20;99.90
62581;DHT22;48640;48.770;9.148;2024-01-06T04:34:06;6.20;99.90
62581;DHT22;48640;48.770;9.148;2024-01-06T04:36:33;6.30;99.90
62581;DHT22;48640;48.770;9.148;2024-01-06T04:39:00;6.20;99.90
62581;DHT22;48640;48.770;9.148;2024-01-06T04:41:28;6.20;99.90
62581;DHT22;48640;48.770;9.148;2024-01-06T04:43:55;6.20;99.90
62581;DHT22;48640;48.770;9.148;2024-01-06T04:46:22;6.20;99.90
62581;DHT22;48640;48.770;9.148;2024-01-06T04:48:49;6.10;99.90
62581;DHT22;48640;48.770;9.148;2024-01-06T04:51:16;6.10;99.90
62581;DHT22;48640;48.770;9.148;2024-01-06T04:53:43;6.10;99.90
62581;DHT22;48640;48.770;9.148;2024-01-06T04:56:10;6.20;99.90
62581;DHT22;48640;48.770;9.148;2024-01-06T04:58:39;6.30;99.90
62581;DHT22;48640;48.770;9.148;2024-01-06T05:01:10;6.20;99.90
62581;DHT22;48640;48.770;9.148;2024-01-06T05:03:37;6.20;99.90
62581;DHT22;48640;48.770;9.148;2024-01-06T05:06:03;6.30;99.90
62581;DHT22;48640;48.770;9.148;2024-01-06T05:08:30;6.50;99.90
62581;DHT22;48640;48.770;9.148;2024-01-06T05:10:57;6.30;99.90
62581;DHT22;48640;48.770;9.148;2024-01-06T05:13:24;6.60;99.90
62581;DHT22;48640;48.770;9.148;2024-01-06T05:15:52;6.80;99.90
62581;DHT22;48640;48.770;9.148;2024-01-06T05:18:19;6.10;99.90
62581;DHT22;48640;48.770;9.148;2024-01-06T05:20:46;6.20;99.90
62581;DHT22;48640;48.770;9.148;2024-01-06T05:23:13;6.20;99.80
62581;DHT22;48640;48.770;9.148;2024-01-06T05:25:40;6.20;99.90
62581;DHT22;48640;48.770;9.148;2024-01-06T05:28:10;6.20;99.90
62581;DHT22;48640;48.770;9.148;2024-01-06T05:30:37;6.10;99.90
62581;DHT22;48640;48.770;9.148;2024-01-06T05:33:08;6.80;99.90
62581;DHT22;48640;48.770;9.148;2024-01-06T05:35:35;6.20;99.90
62581;DHT22;48640;48.770;9.148;2024-01-06T05:38:02;6.30;99.90
62581;DHT22;48640;48.770;9.148;2024-01-06T05:40:29;6.20;99.80
62581;DHT22;48640;48.770;9.148;2024-01-06T05:42:56;6.10;99.90
62581;DHT22;48640;48.770;9.148;2024-01-06T05:45:23;6.10;99.90
62581;DHT22;48640;48.770;9.148;2024-01-06T05:47:50;6.10;99.90
62581;DHT22;48640;48.770;9.148;2024-01-06T05:50:18;6.10;99.90
62581;DHT22;48640;48.770;9.148;2024-01-06T05:52:45;6.10;99.90
62581;DHT22;48640;48.770;9.148;2024-01-06T05:55:14;6.20;99.90
62581;DHT22;48640;48.770;9.148;2024-01-06T05:57:42;6.10;99.90
62581;DHT22;48640;48.770;9.148;2024-01-06T06:00:10;6.20;99.90
62581;DHT22;48640;48.770;9.148;2024-01-06T06:02:37;6.20;99.90
62581;DHT22;48640;48.770;9.148;2024-01-06T06:05:05;6.20;99.90
62581;DHT22;48640;48.770;9.148;2024-01-06T06:07:33;6.30;99.60
62581;DHT22;48640;48.770;9.148;2024-01-06T06:10:06;6.30;99.40
62581;DHT22;48640;48.770;9.148;2024-01-06T06:12:33;6.30;99.40
62581;DHT22;48640;48.770;9.148;2024-01-06T06:15:00;6.30;99.50
62581;DHT22;48640;48.770;9.148;2024-01-06T06:17:27;6.20;99.60
62581;DHT22;48640;48.770;9.148;2024-01-06T06:19:53;6.30;99.50
62581;DHT22;48640;48.770;9.148;2024-01-06T06:22:20;6.30;99.50
62581;DHT22;48640;48.770;9.148;2024-01-06T06:24:50;6.20;99.70
62581;DHT22;48640;48.770;9.148;2024-01-06T06:27:17;6.20;99.90
62581;DHT22;48640;48.770;9.148;2024-01-06T06:29:44;6.20;99.90
62581;DHT22;48640;48.770;9.148;2024-01-06T06:32:12;6.20;99.90
62581;DHT22;48640;48.770;9.148;2024-01-06T06:34:39;6.30;99.90
62581;DHT22;48640;48.770;9.148;2024-01-06T06:37:06;6.30;99.60
62581;DHT22;48640;48.770;9.148;2024-01-06T06:39:33;6.30;99.70
62581;DHT22;48640;48.770;9.148;2024-01-06T06:42:02;6.30;99.70
62581;DHT22;48640;48.770;9.148;2024-01-06T06:44:29;6.30;99.70
62581;DHT22;48640;48.770;9.148;2024-01-06T06:46:56;6.30;99.80
62581;DHT22;48640;48.770;9.148;2024-01-06T06:49:23;6.20;99.90
62581;DHT22;48640;48.770;9.148;2024-01-06T06:51:50;6.20;99.90
62581;DHT22;48640;48.770;9.148;2024-01-06T06:54:17;6.20;99.90
62581;DHT22;48640;48.770;9.148;2024-01-06T06:56:44;6.20;99.80
62581;DHT22;48640;48.770;9.148;2024-01-06T06:59:12;6.20;99.90
62581;DHT22;48640;48.770;9.148;2024-01-06T07:01:40;6.20;99.90
62581;DHT22;48640;48.770;9.148;2024-01-06T07:04:06;6.20;99.90
62581;DHT22;48640;48.770;9.148;2024-01-06T07:06:33;6.30;99.90
62581;DHT22;48640;48.770;9.148;2024-01-06T07:09:00;6.30;99.80
62581;DHT22;48640;48.770;9.148;2024-01-06T07:11:28;6.20;99.60
62581;DHT22;48640;48.770;9.148;2024-01-06T07:13:55;6.20;99.80
62581;DHT22;48640;48.770;9.148;2024-01-06T07:16:23;6.20;99.90
62581;DHT22;48640;48.770;9.148;2024-01-06T07:18:50;6.20;99.90
62581;DHT22;48640;48.770;9.148;2024-01-06T07:21:17;6.20;99.70
62581;DHT22;48640;48.770;9.148;2024-01-06T07:23:44;6.20;99.70
62581;DHT22;48640;48.770;9.148;2024-01-06T07:26:10;6.10;99.80
62581;DHT22;48640;48.770;9.148;2024-01-06T07:28:37;6.20;99.90
62581;DHT22;48640;48.770;9.148;2024-01-06T07:31:04;6.20;99.80
62581;DHT22;48640;48.770;9.148;2024-01-06T07:33:33;6.20;99.70
62581;DHT22;48640;48.770;9.148;2024-01-06T07:35:59;6.20;99.90
62581;DHT22;48640;48.770;9.148;2024-01-06T07:38:26;6.30;99.40
62581;DHT22;48640;48.770;9.148;2024-01-06T07:40:54;6.30;99.30
62581;DHT22;48640;48.770;9.148;2024-01-06T07:43:21;6.40;99.10
62581;DHT22;48640;48.770;9.148;2024-01-06T07:45:47;6.30;99.10
62581;DHT22;48640;48.770;9.148;2024-01-06T07:48:16;6.40;99.10
62581;DHT22;48640;48.770;9.148;2024-01-06T07:50:44;6.40;99.20
62581;DHT22;48640;48.770;9.148;2024-01-06T07:53:11;6.30;99.10
62581;DHT22;48640;48.770;9.148;2024-01-06T07:55:39;6.40;99.20
62581;DHT22;48640;48.770;9.148;2024-01-06T07:58:06;6.40;98.90
62581;DHT22;48640;48.770;9.148;2024-01-06T08:00:33;6.50;98.70
62581;DHT22;48640;48.770;9.148;2024-01-06T08:03:00;6.60;98.50
62581;DHT22;48640;48.770;9.148;2024-01-06T08:05:28;6.60;98.20
62581;DHT22;48640;48.770;9.148;2024-01-06T08:07:56;6.60;98.10
62581;DHT22;48640;48.770;9.148;2024-01-06T08:10:23;6.70;97.90
62581;DHT22;48640;48.770;9.148;2024-01-06T08:12:50;6.60;97.90
62581;DHT22;48640;48.770;9.148;2024-01-06T08:15:17;6.70;97.70
62581;DHT22;48640;48.770;9.148;2024-01-06T08:17:44;6.70;97.60
62581;DHT22;48640;48.770;9.148;2024-01-06T08:20:11;6.70;97.40
62581;DHT22;48640;48.770;9.148;2024-01-06T08:22:38;6.70;97.20
62581;DHT22;48640;48.770;9.148;2024-01-06T08:25:08;6.80;97.10
62581;DHT22;48640;48.770;9.148;2024-01-06T08:27:36;6.80;96.90
62581;DHT22;48640;48.770;9.148;2024-01-06T08:30:04;6.80;97.30
62581;DHT22;48640;48.770;9.148;2024-01-06T08:32:31;6.80;97.00
62581;DHT22;48640;48.770;9.148;2024-01-06T08:34:58;6.80;97.20
62581;DHT22;48640;48.770;9.148;2024-01-06T08:37:25;6.80;97.30
62581;DHT22;48640;48.770;9.148;2024-01-06T08:39:52;6.90;96.90
62581;DHT22;48640;48.770;9.148;2024-01-06T08:42:20;6.90;97.00
62581;DHT22;48640;48.770;9.148;2024-01-06T08:44:47;7.00;96.80
62581;DHT22;48640;48.770;9.148;2024-01-06T08:47:14;7.00;96.80
62581;DHT22;48640;48.770;9.148;2024-01-06T08:49:41;7.00;96.70
62581;DHT22;48640;48.770;9.148;2024-01-06T08:52:08;7.10;96.30
62581;DHT22;48640;48.770;9.148;2024-01-06T08:54:35;7.20;96.20
62581;DHT22;48640;48.770;9.148;2024-01-06T08:57:02;7.30;96.20
62581;DHT22;48640;48.770;9.148;2024-01-06T08:59:31;7.30;95.90
62581;DHT22;48640;48.770;9.148;2024-01-06T09:01:58;7.30;96.00
62581;DHT22;48640;48.770;9.148;2024-01-06T09:04:25;7.30;95.70
62581;DHT22;48640;48.770;9.148;2024-01-06T09:06:52;7.40;95.80
62581;DHT22;48640;48.770;9.148;2024-01-06T09:09:19;7.40;95.60
62581;DHT22;48640;48.770;9.148;2024-01-06T09:11:45;7.40;95.30
62581;DHT22;48640;48.770;9.148;2024-01-06T09:14:12;7.30;95.50
62581;DHT22;48640;48.770;9.148;2024-01-06T09:16:41;7.30;95.80
62581;DHT22;48640;48.770;9.148;2024-01-06T09:19:08;7.30;95.90
62581;DHT22;48640;48.770;9.148;2024-01-06T09:21:34;7.40;95.60
62581;DHT22;48640;48.770;9.148;2024-01-06T09:24:02;7.40;95.80
62581;DHT22;48640;48.770;9.148;2024-01-06T09:26:32;7.40;95.70
62581;DHT22;48640;48.770;9.148;2024-01-06T09:28:59;7.50;96.10
62581;DHT22;48640;48.770;9.148;2024-01-06T09:31:26;7.50;96.20
62581;DHT22;48640;48.770;9.148;2024-01-06T09:34:00;7.60;95.60
62581;DHT22;48640;48.770;9.148;2024-01-06T09:36:29;7.70;95.30
62581;DHT22;48640;48.770;9.148;2024-01-06T09:38:57;7.80;95.50
62581;DHT22;48640;48.770;9.148;2024-01-06T09:41:24;7.80;95.20
62581;DHT22;48640;48.770;9.148;2024-01-06T09:43:51;7.80;95.50
62581;DHT22;48640;48.770;9.148;2024-01-06T09:46:25;7.80;95.50
62581;DHT22;48640;48.770;9.148;2024-01-06T09:48:53;7.80;95.40
62581;DHT22;48640;48.770;9.148;2024-01-06T09:51:22;7.90;95.00
62581;DHT22;48640;48.770;9.148;2024-01-06T09:53:57;7.80;95.00
62581;DHT22;48640;48.770;9.148;2024-01-06T09:56:25;7.90;94.80
62581;DHT22;48640;48.770;9.148;2024-01-06T09:58:53;7.90;94.70
62581;DHT22;48640;48.770;9.148;2024-01-06T10:01:20;7.90;95.10
62581;DHT22;48640;48.770;9.148;2024-01-06T10:03:48;7.90;94.90
62581;DHT22;48640;48.770;9.148;2024-01-06T10:06:15;8.00;95.40
62581;DHT22;48640;48.770;9.148;2024-01-06T10:08:44;8.00;95.70
62581;DHT22;48640;48.770;9.148;2024-01-06T10:11:11;7.80;95.90
62581;DHT22;48640;48.770;9.148;2024-01-06T10:13:38;7.80;96.00
62581;DHT22;48640;48.770;9.148;2024-01-06T10:16:07;7.70;95.90
62581;DHT22;48640;48.770;9.148;2024-01-06T10:18:34;7.70;96.50
62581;DHT22;48640;48.770;9.148;2024-01-06T10:21:04;7.80;96.80
62581;DHT22;48640;48.770;9.148;2024-01-06T10:23:33;7.70;96.80
62581;DHT22;48640;48.770;9.148;2024-01-06T10:26:03;7.70;97.00
62581;DHT22;48640;48.770;9.148;2024-01-06T10:28:30;7.70;97.50
62581;DHT22;48640;48.770;9.148;2024-01-06T10:30:58;7.70;97.90
62581;DHT22;48640;48.770;9.148;2024-01-06T10:33:25;7.80;97.70
62581;DHT22;48640;48.770;9.148;2024-01-06T10:35:52;7.80;97.20
62581;DHT22;48640;48.770;9.148;2024-01-06T10:38:20;7.80;97.70
62581;DHT22;48640;48.770;9.148;2024-01-06T10:40:56;7.90;97.70
62581;DHT22;48640;48.770;9.148;2024-01-06T10:43:26;7.90;98.00
62581;DHT22;48640;48.770;9.148;2024-01-06T10:45:55;7.90;98.60
62581;DHT22;48640;48.770;9.148;2024-01-06T10:48:24;7.80;98.40
62581;DHT22;48640;48.770;9.148;2024-01-06T10:50:52;7.80;98.60
62581;DHT22;48640;48.770;9.148;2024-01-06T10:53:21;7.80;98.90
62581;DHT22;48640;48.770;9.148;2024-01-06T10:55:49;7.80;98.00
62581;DHT22;48640;48.770;9.148;2024-01-06T10:58:18;7.80;97.80
62581;DHT22;48640;48.770;9.148;2024-01-06T11:00:47;7.80;97.80
62581;DHT22;48640;48.770;9.148;2024-01-06T11:03:14;7.90;97.80
62581;DHT22;48640;48.770;9.148;2024-01-06T11:05:42;8.00;97.90
62581;DHT22;48640;48.770;9.148;2024-01-06T11:08:09;7.90;98.00
62581;DHT22;48640;48.770;9.148;2024-01-06T11:10:37;7.80;98.70
62581;DHT22;48640;48.770;9.148;2024-01-06T11:13:08;7.60;99.10
62581;DHT22;48640;48.770;9.148;2024-01-06T11:15:47;7.70;98.90
62581;DHT22;48640;48.770;9.148;2024-01-06T11:18:38;7.80;99.00
62581;DHT22;48640;48.770;9.148;2024-01-06T11:21:19;7.80;98.40
62581;DHT22;48640;48.770;9.148;2024-01-06T11:24:23;7.90;98.70
62581;DHT22;48640;48.770;9.148;2024-01-06T11:26:52;7.90;98.80
62581;DHT22;48640;48.770;9.148;2024-01-06T11:29:22;7.80;98.50
62581;DHT22;48640;48.770;9.148;2024-01-06T11:32:20;7.80;98.60
62581;DHT22;48640;48.770;9.148;2024-01-06T11:34:50;7.70;98.70
62581;DHT22;48640;48.770;9.148;2024-01-06T11:37:24;7.70;98.90
62581;DHT22;48640;48.770;9.148;2024-01-06T11:39:51;7.80;98.90
62581;DHT22;48640;48.770;9.148;2024-01-06T11:42:18;8.00;99.10
62581;DHT22;48640;48.770;9.148;2024-01-06T11:44:50;8.10;98.50
62581;DHT22;48640;48.770;9.148;2024-01-06T11:47:18;8.20;98.30
62581;DHT22;48640;48.770;9.148;2024-01-06T11:49:54;8.30;98.40
62581;DHT22;48640;48.770;9.148;2024-01-06T11:52:22;8.20;98.50
62581;DHT22;48640;48.770;9.148;2024-01-06T11:54:51;8.10;98.40
62581;DHT22;48640;48.770;9.148;2024-01-06T11:57:18;8.20;98.50
62581;DHT22;48640;48.770;9.148;2024-01-06T11:59:46;8.20;98.60
62581;DHT22;48640;48.770;9.148;2024-01-06T12:02:13;8.30;98.30
62581;DHT22;48640;48.770;9.148;2024-01-06T12:04:40;8.20;98.40
62581;DHT22;48640;48.770;9.148;2024-01-06T12:07:09;8.10;98.40
62581;DHT22;48640;48.770;9.148;2024-01-06T12:09:39;7.90;98.60
62581;DHT22;48640;48.770;9.148;2024-01-06T12:12:06;7.80;98.50
62581;DHT22;48640;48.770;9.148;2024-01-06T12:14:34;7.60;98.80
62581;DHT22;48640;48.770;9.148;2024-01-06T12:17:01;7.60;99.10
62581;DHT22;48640;48.770;9.148;2024-01-06T12:19:29;7.50;99.30
62581;DHT22;48640;48.770;9.148;2024-01-06T12:21:57;7.60;99.40
62581;DHT22;48640;48.770;9.148;2024-01-06T12:24:27;7.70;99.30
62581;DHT22;48640;48.770;9.148;2024-01-06T12:26:56;7.80;99.50
62581;DHT22;48640;48.770;9.148;2024-01-06T12:29:26;7.70;99.10
62581;DHT22;48640;48.770;9.148;2024-01-06T12:31:54;7.50;99.30
62581;DHT22;48640;48.770;9.148;2024-01-06T12:34:22;7.50;99.80
62581;DHT22;48640;48.770;9.148;2024-01-06T12:36:53;7.60;99.50
62581;DHT22;48640;48.770;9.148;2024-01-06T12:39:21;7.40;99.60
62581;DHT22;48640;48.770;9.148;2024-01-06T12:41:51;7.30;99.90
62581;DHT22;48640;48.770;9.148;2024-01-06T12:44:18;7.40;99.90
62581;DHT22;48640;48.770;9.148;2024-01-06T12:46:45;7.40;99.90
62581;DHT22;48640;48.770;9.148;2024-01-06T12:49:12;7.40;99.90
62581;DHT22;48640;48.770;9.148;2024-01-06T12:51:40;7.50;99.90
62581;DHT22;48640;48.770;9.148;2024-01-06T12:54:09;7.50;99.90
62581;DHT22;48640;48.770;9.148;2024-01-06T12:56:37;7.50;99.90
62581;DHT22;48640;48.770;9.148;2024-01-06T12:59:06;7.50;99.90
62581;DHT22;48640;48.770;9.148;2024-01-06T13:01:34;7.50;99.90
62581;DHT22;48640;48.770;9.148;2024-01-06T13:04:00;7.50;99.90
62581;DHT22;48640;48.770;9.148;2024-01-06T13:06:27;7.40;99.90
62581;DHT22;48640;48.770;9.148;2024-01-06T13:08:57;7.20;99.90
62581;DHT22;48640;48.770;9.148;2024-01-06T13:11:25;7.30;99.90
62581;DHT22;48640;48.770;9.148;2024-01-06T13:13:53;7.40;99.90
62581;DHT22;48640;48.770;9.148;2024-01-06T13:16:22;7.20;99.90
62581;DHT22;48640;48.770;9.148;2024-01-06T13:18:49;7.20;99.90
62581;DHT22;48640;48.770;9.148;2024-01-06T13:21:16;7.20;99.90
62581;DHT22;48640;48.770;9.148;2024-01-06T13:23:43;7.00;99.90
62581;DHT22;48640;48.770;9.148;2024-01-06T13:26:11;7.00;99.90
62581;DHT22;48640;48.770;9.148;2024-01-06T13:28:38;7.00;99.90
62581;DHT22;48640;48.770;9.148;2024-01-06T13:31:05;7.00;99.90
62581;DHT22;48640;48.770;9.148;2024-01-06T13:33:33;7.00;99.90
62581;DHT22;48640;48.770;9.148;2024-01-06T13:36:01;7.00;99.90
62581;DHT22;48640;48.770;9.148;2024-01-06T13:38:27;7.00;99.90
62581;DHT22;48640;48.770;9.148;2024-01-06T13:40:55;7.00;99.90
62581;DHT22;48640;48.770;9.148;2024-01-06T13:43:21;7.00;99.90
62581;DHT22;48640;48.770;9.148;2024-01-06T13:45:48;7.00;99.90
62581;DHT22;48640;48.770;9.148;2024-01-06T13:48:15;7.10;99.90
62581;DHT22;48640;48.770;9.148;2024-01-06T13:50:45;7.30;99.90
62581;DHT22;48640;48.770;9.148;2024-01-06T13:53:12;7.20;99.90
62581;DHT22;48640;48.770;9.148;2024-01-06T13:55:39;7.10;99.90
62581;DHT22;48640;48.770;9.148;2024-01-06T13:58:06;7.20;99.90
62581;DHT22;48640;48.770;9.148;2024-01-06T14:00:35;7.20;99.90
62581;DHT22;48640;48.770;9.148;2024-01-06T14:03:03;7.30;99.90
62581;DHT22;48640;48.770;9.148;2024-01-06T14:05:32;7.10;99.90
62581;DHT22;48640;48.770;9.148;2024-01-06T14:08:01;7.10;99.90
62581;DHT22;48640;48.770;9.148;2024-01-06T14:10:28;7.10;99.90
62581;DHT22;48640;48.770;9.148;2024-01-06T14:12:57;7.00;99.90
62581;DHT22;48640;48.770;9.148;2024-01-06T14:15:24;7.00;99.90
62581;DHT22;48640;48.770;9.148;2024-01-06T14:17:52;7.10;99.90
62581;DHT22;48640;48.770;9.148;2024-01-06T14:20:19;7.20;99.90
62581;DHT22;48640;48.770;9.148;2024-01-06T14:22:46;7.10;99.90
62581;DHT22;48640;48.770;9.148;2024-01-06T14:25:15;7.00;99.90
62581;DHT22;48640;48.770;9.148;2024-01-06T14:27:46;6.90;99.90
62581;DHT22;48640;48.770;9.148;2024-01-06T14:30:13;6.90;99.90
62581;DHT22;48640;48.770;9.148;2024-01-06T14:32:40;6.90;99.90
62581;DHT22;48640;48.770;9.148;2024-01-06T14:35:07;7.00;99.90
62581;DHT22;48640;48.770;9.148;2024-01-06T14:37:37;7.00;99.90
62581;DHT22;48640;48.770;9.148;2024-01-06T14:40:05;7.00;99.90
62581;DHT22;48640;48.770;9.148;2024-01-06T14:42:33;7.00;99.90
62581;DHT22;48640;48.770;9.148;2024-01-06T14:45:03;6.90;99.90
62581;DHT22;48640;48.770;9.148;2024-01-06T14:47:30;6.90;99.90
62581;DHT22;48640;48.770;9.148;2024-01-06T14:49:57;6.90;99.90
62581;DHT22;48640;48.770;9.148;2024-01-06T14:52:24;6.90;99.90
62581;DHT22;48640;48.770;9.148;2024-01-06T14:54:51;6.90;99.90
62581;DHT22;48640;48.770;9.148;2024-01-06T14:57:18;6.80;99.90
62581;DHT22;48640;48.770;9.148;2024-01-06T14:59:47;6.70;99.90
62581;DHT22;48640;48.770;9.148;2024-01-06T15:02:14;6.80;99.90
62581;DHT22;48640;48.770;9.148;2024-01-06T15:04:41;6.80;99.90
62581;DHT22;48640;48.770;9.148;2024-01-06T15:07:09;6.80;99.90
62581;DHT22;48640;48.770;9.148;2024-01-06T15:09:38;6.80;99.90
62581;DHT22;48640;48.770;9.148;2024-01-06T15:12:06;6.80;99.90
62581;DHT22;48640;48.770;9.148;2024-01-06T15:14:33;6.70;99.90
62581;DHT22;48640;48.770;9.148;2024-01-06T15:17:01;6.70;99.90
62581;DHT22;48640;48.770;9.148;2024-01-06T15:19:28;6.90;99.90
62581;DHT22;48640;48.770;9.148;2024-01-06T15:21:57;6.90;99.90
62581;DHT22;48640;48.770;9.148;2024-01-06T15:24:25;6.90;99.90
62581;DHT22;48640;48.770;9.148;2024-01-06T15:26:52;6.80;99.90
62581;DHT22;48640;48.770;9.148;2024-01-06T15:29:21;6.70;99.90
62581;DHT22;48640;48.770;9.148;2024-01-06T15:31:48;6.80;99.90
62581;DHT22;48640;48.770;9.148;2024-01-06T15:34:18;6.80;99.90
62581;DHT22;48640;48.770;9.148;2024-01-06T15:36:45;6.70;99.90
62581;DHT22;48640;48.770;9.148;2024-01-06T15:39:14;6.70;99.90
62581;DHT22;48640;48.770;9.148;2024-01-06T15:41:42;6.70;99.90
62581;DHT22;48640;48.770;9.148;2024-01-06T15:44:09;6.60;99.90
62581;DHT22;48640;48.770;9.148;2024-01-06T15:46:36;6.80;99.90
62581;DHT22;48640;48.770;9.148;2024-01-06T15:49:04;6.80;99.90